Time;durP1;ratioP1;P1;durP2;ratioP2;P2;SDS_P1;SDS_P2;PMS_P1;PMS_P2;Temp;Humidity;BMP_temperature;BMP_pressure;BME280_temperature;BME280_humidity;BME280_pressure;Samples;Min_cycle;Max_cycle;Signal;HPM_P1;HPM_P2
2023/07/14 00:00:31;;;;;;;;;8.00;8.00;;;;;22.13;44.97;101550.16;5021264;28;45442;-45
2023/07/14 00:02:57;;;;;;;;;8.33;8.33;;;;;22.11;44.86;101553.00;5019598;28;45463;-47
2023/07/14 00:05:38;;;;;;;;;3.00;3.00;;;;;22.10;44.89;101548.59;5019612;28;47089;-48
2023/07/14 00:08:03;;;;;;;;;11.33;9.67;;;;;22.10;44.79;101540.47;5019845;28;45416;-46
2023/07/14 00:10:34;;;;;;;;;15.33;14.67;;;;;22.08;45.21;101537.00;5020932;28;45285;-46
2023/07/14 00:13:04;;;;;;;;;16.67;16.33;;;;;22.07;44.81;101534.44;5021236;28;45288;-47
2023/07/14 00:15:31;;;;;;;;;25.33;24.33;;;;;22.06;44.94;101533.59;5020708;28;45437;-45
2023/07/14 00:18:17;;;;;;;;;27.67;22.67;;;;;22.05;45.04;101528.31;5019257;28;45333;-45
2023/07/14 00:20:42;;;;;;;;;26.67;24.00;;;;;22.04;45.01;101524.75;5019571;28;45329;-44
2023/07/14 00:23:11;;;;;;;;;26.67;25.67;;;;;22.04;45.14;101538.28;5019523;28;55568;-44
2023/07/14 00:25:38;;;;;;;;;28.67;26.67;;;;;22.03;45.24;101530.28;5020571;28;46097;-46
2023/07/14 00:28:05;;;;;;;;;30.33;26.67;;;;;22.01;45.36;101524.19;5019383;28;45411;-47
2023/07/14 00:30:30;;;;;;;;;37.33;30.67;;;;;22.00;45.62;101527.88;5019324;28;45436;-45
2023/07/14 00:32:55;;;;;;;;;28.33;26.00;;;;;21.98;45.74;101531.56;5019400;28;69172;-47
2023/07/14 00:35:26;;;;;;;;;28.00;25.00;;;;;21.98;45.31;101525.31;5019651;28;65381;-46
2023/07/14 00:37:54;;;;;;;;;30.00;25.00;;;;;21.96;45.40;101519.16;5020553;28;45442;-48
2023/07/14 00:40:38;;;;;;;;;30.33;27.00;;;;;21.95;45.17;101522.84;5020475;28;45462;-45
2023/07/14 00:43:05;;;;;;;;;34.00;28.67;;;;;21.94;45.71;101521.13;5020250;28;45436;-46
2023/07/14 00:45:33;;;;;;;;;30.00;24.33;;;;;21.94;45.77;101521.13;5020150;28;45321;-46
2023/07/14 00:48:03;;;;;;;;;25.00;24.67;;;;;21.93;45.52;101514.84;5018775;28;45222;-48
2023/07/14 00:50:57;;;;;;;;;26.33;21.33;;;;;21.92;45.25;101512.28;5019624;28;45261;-46
2023/07/14 00:53:27;;;;;;;;;27.33;23.67;;;;;21.89;45.38;101504.41;5021080;28;45277;-47
2023/07/14 00:55:57;;;;;;;;;21.67;21.67;;;;;21.89;45.44;101507.13;5018557;28;45380;-49
2023/07/14 00:58:25;;;;;;;;;22.33;16.67;;;;;21.86;45.48;101510.94;5019004;28;45387;-44
2023/07/14 01:01:10;;;;;;;;;17.33;14.67;;;;;21.85;45.39;101495.72;5018918;28;45373;-45
2023/07/14 01:03:40;;;;;;;;;14.67;12.00;;;;;21.83;45.76;101497.69;5019791;28;45516;-46
2023/07/14 01:06:16;;;;;;;;;13.33;10.33;;;;;21.79;45.50;101494.38;5019749;28;46344;-45
2023/07/14 01:08:52;;;;;;;;;13.67;12.33;;;;;21.75;45.69;101487.53;5019995;28;45417;-46
2023/07/14 01:11:19;;;;;;;;;13.67;13.67;;;;;21.71;45.88;101496.06;5020237;28;45423;-46
2023/07/14 01:13:44;;;;;;;;;12.00;12.00;;;;;21.66;46.20;101487.47;5020102;28;45368;-45
2023/07/14 01:16:12;;;;;;;;;14.67;13.00;;;;;21.62;46.37;101493.13;5018781;28;75335;-45
2023/07/14 01:18:38;;;;;;;;;14.00;13.00;;;;;21.58;46.02;101480.03;5018540;28;45358;-45
2023/07/14 01:21:03;;;;;;;;;13.00;11.00;;;;;21.54;46.44;101482.13;5018970;28;45561;-46
2023/07/14 01:23:39;;;;;;;;;16.00;16.00;;;;;21.52;46.56;101485.94;5019683;28;45469;-46
2023/07/14 01:26:30;;;;;;;;;18.33;16.67;;;;;21.49;46.44;101481.63;4998684;28;48307;-46
2023/07/14 01:28:55;;;;;;;;;19.67;18.00;;;;;21.47;46.33;101475.47;5017975;28;45514;-47
2023/07/14 01:31:23;;;;;;;;;15.00;14.67;;;;;21.44;47.06;101464.94;5017707;28;68538;-44
2023/07/14 01:33:52;;;;;;;;;12.00;12.00;;;;;21.41;47.23;101463.34;5019630;28;45747;-45
2023/07/14 01:36:18;;;;;;;;;17.67;15.00;;;;;21.38;46.94;101460.03;5021406;28;46187;-45
2023/07/14 01:38:43;;;;;;;;;13.67;11.33;;;;;21.38;46.65;101462.75;5023125;28;45470;-45
2023/07/14 01:41:09;;;;;;;;;12.00;10.67;;;;;21.37;46.95;101458.31;5023533;28;45294;-46
2023/07/14 01:43:36;;;;;;;;;14.67;13.00;;;;;21.35;47.29;101457.59;5021090;28;66830;-46
2023/07/14 01:46:02;;;;;;;;;15.00;12.00;;;;;21.33;47.54;101455.03;5023259;28;45431;-46
2023/07/14 01:48:34;;;;;;;;;11.33;10.00;;;;;21.33;47.90;101455.03;5021576;28;45482;-45
2023/07/14 01:51:03;;;;;;;;;9.33;8.00;;;;;21.30;47.40;101455.28;5022056;28;45360;-46
2023/07/14 01:53:54;;;;;;;;;9.33;8.00;;;;;21.27;47.85;101447.44;5021658;28;45488;-49
2023/07/14 01:56:23;;;;;;;;;9.33;8.67;;;;;21.24;47.41;101448.56;5009176;28;46401;-46
2023/07/14 01:59:03;;;;;;;;;8.00;8.00;;;;;21.22;47.79;101444.28;5020876;28;71626;-45
2023/07/14 02:01:29;;;;;;;;;8.00;7.00;;;;;21.20;47.88;101435.41;5021876;28;45744;-47
2023/07/14 02:03:56;;;;;;;;;8.00;7.67;;;;;21.18;47.50;101434.69;5022732;28;45433;-46
2023/07/14 02:06:22;;;;;;;;;10.00;10.00;;;;;21.17;47.60;101439.22;5022519;28;46313;-45
2023/07/14 02:08:48;;;;;;;;;10.67;10.67;;;;;21.15;47.71;101435.81;5022726;28;45448;-47
2023/07/14 02:11:23;;;;;;;;;10.00;8.67;;;;;21.14;47.59;101439.50;5021590;28;45328;-48
2023/07/14 02:13:53;;;;;;;;;12.67;9.67;;;;;21.11;48.05;101440.63;5021526;28;45491;-46
2023/07/14 02:16:19;;;;;;;;;12.67;11.33;;;;;21.10;47.79;101435.34;5021487;28;45368;-45
2023/07/14 02:18:46;;;;;;;;;9.67;8.00;;;;;21.06;47.84;101437.44;5022349;28;45233;-45
2023/07/14 02:21:13;;;;;;;;;15.00;13.00;;;;;21.02;48.45;101438.72;5022833;28;45361;-45
2023/07/14 02:23:40;;;;;;;;;16.67;15.33;;;;;20.99;48.72;101431.72;5021353;28;45415;-46
2023/07/14 02:26:13;;;;;;;;;16.33;15.67;;;;;20.97;48.34;101443.63;5021180;28;45324;-46
2023/07/14 02:28:38;;;;;;;;;21.67;20.67;;;;;20.94;48.54;101444.75;5021314;28;45431;-47
2023/07/14 02:31:13;;;;;;;;;31.00;23.33;;;;;20.92;48.63;101433.19;5022481;28;45462;-46
2023/07/14 02:33:39;;;;;;;;;25.00;21.00;;;;;20.91;48.58;101433.34;5020995;28;45367;-47
2023/07/14 02:36:18;;;;;;;;;25.00;20.33;;;;;20.88;48.29;101426.34;5020056;28;73097;-46
2023/07/14 02:38:43;;;;;;;;;19.33;18.00;;;;;20.88;48.19;101434.44;5021093;28;45440;-45
2023/07/14 02:41:31;;;;;;;;;25.67;20.67;;;;;20.86;48.32;101428.34;5021430;28;67357;-47
2023/07/14 02:44:02;;;;;;;;;19.67;19.67;;;;;20.84;48.87;101429.44;5021173;28;46504;-45
2023/07/14 02:46:45;;;;;;;;;21.33;17.00;;;;;20.82;48.91;101430.44;5021232;28;46069;-45
2023/07/14 02:49:11;;;;;;;;;22.67;20.33;;;;;20.81;49.06;101438.66;5020615;28;45369;-44
2023/07/14 02:51:36;;;;;;;;;17.67;16.00;;;;;20.79;49.27;101429.81;5020003;28;66148;-47
2023/07/14 02:54:03;;;;;;;;;25.67;19.33;;;;;20.77;48.68;101423.69;5022299;28;45387;-46
2023/07/14 02:56:28;;;;;;;;;17.00;15.67;;;;;20.76;49.23;101419.28;5021916;28;46237;-48
2023/07/14 02:58:54;;;;;;;;;20.67;16.67;;;;;20.74;49.05;101423.94;5022101;28;45255;-48
2023/07/14 03:01:20;;;;;;;;;20.67;17.33;;;;;20.72;49.05;101423.22;5021166;28;66168;-46
2023/07/14 03:03:46;;;;;;;;;22.00;16.67;;;;;20.70;49.37;101425.19;5021685;28;45467;-47
2023/07/14 03:06:13;;;;;;;;;20.00;15.00;;;;;20.67;49.67;101424.41;5021501;28;46228;-45
2023/07/14 03:08:38;;;;;;;;;19.67;16.00;;;;;20.66;49.78;101419.13;5020616;28;45429;-45
2023/07/14 03:11:04;;;;;;;;;22.33;18.33;;;;;20.64;49.20;101415.72;5021908;28;45358;-46
2023/07/14 03:13:29;;;;;;;;;22.33;15.00;;;;;20.61;49.41;101402.44;5021845;28;45466;-49
2023/07/14 03:15:55;;;;;;;;;17.33;16.67;;;;;20.59;49.41;101399.03;5021533;28;47005;-45
2023/07/14 03:18:20;;;;;;;;;4.67;3.00;;;;;20.57;50.22;101403.69;5021391;28;45820;-45
2023/07/14 03:20:45;;;;;;;;;18.00;18.00;;;;;20.54;50.14;101394.00;5021891;28;45269;-44
2023/07/14 03:23:11;;;;;;;;;20.33;19.33;;;;;20.54;49.70;101388.59;5021661;28;45431;-45
2023/07/14 03:25:36;;;;;;;;;22.67;17.67;;;;;20.53;49.89;101386.88;5021545;28;46307;-48
2023/07/14 03:28:03;;;;;;;;;23.00;20.00;;;;;20.53;50.44;101391.44;5021481;28;45351;-48
2023/07/14 03:30:29;;;;;;;;;15.67;15.33;;;;;20.51;50.38;101391.56;5021740;28;45487;-48
2023/07/14 03:32:54;;;;;;;;;17.67;17.00;;;;;20.52;50.55;101404.09;5021238;28;45360;-45
2023/07/14 03:35:20;;;;;;;;;15.33;13.33;;;;;20.51;50.63;101391.56;5021283;28;47115;-46
2023/07/14 03:37:46;;;;;;;;;14.33;13.67;;;;;20.51;50.16;101388.88;5021050;28;52101;-46
2023/07/14 03:40:11;;;;;;;;;14.67;12.33;;;;;20.52;50.66;101387.00;5021703;28;45336;-47
2023/07/14 03:42:38;;;;;;;;;17.67;15.00;;;;;20.53;50.20;101381.47;5021353;28;45333;-46
2023/07/14 03:45:04;;;;;;;;;14.33;11.67;;;;;20.53;50.28;101378.75;5021429;28;46303;-49
2023/07/14 03:47:30;;;;;;;;;16.33;14.67;;;;;20.52;50.21;101377.06;5021053;28;45481;-47
2023/07/14 03:49:55;;;;;;;;;15.67;13.33;;;;;20.54;50.27;101374.25;5021112;28;45446;-49
2023/07/14 03:52:20;;;;;;;;;16.67;14.33;;;;;20.54;50.47;101366.97;5020518;28;67475;-46
2023/07/14 03:54:46;;;;;;;;;16.00;14.00;;;;;20.55;50.78;101359.75;5021064;28;45322;-48
2023/07/14 03:57:11;;;;;;;;;14.67;12.67;;;;;20.58;50.76;101354.06;5020585;28;60943;-48
2023/07/14 03:59:36;;;;;;;;;13.67;10.67;;;;;20.60;50.25;101363.78;5019139;28;68306;-48
2023/07/14 04:02:02;;;;;;;;;15.67;14.67;;;;;20.61;50.81;101360.09;5020287;28;68791;-48
2023/07/14 04:04:28;;;;;;;;;15.00;14.33;;;;;20.63;50.55;101363.50;5020638;28;46214;-49
2023/07/14 04:06:54;;;;;;;;;16.00;13.33;;;;;20.66;50.56;101365.09;5021011;28;45363;-53
2023/07/14 04:09:20;;;;;;;;;15.67;15.00;;;;;20.69;50.65;101362.16;5021075;28;45228;-48
2023/07/14 04:11:45;;;;;;;;;17.50;14.50;;;;;20.72;50.19;101358.34;5002741;28;57954;-50
2023/07/14 04:14:11;;;;;;;;;15.33;15.33;;;;;20.73;50.74;101360.06;5020353;28;54734;-49
2023/07/14 04:16:36;;;;;;;;;17.00;15.67;;;;;20.75;50.42;101356.22;5020869;28;45359;-50
2023/07/14 04:19:03;;;;;;;;;17.67;12.00;;;;;20.77;50.67;101351.56;5019415;28;45277;-49
2023/07/14 04:21:29;;;;;;;;;16.67;15.67;;;;;20.81;50.22;101357.56;5020934;28;45507;-53
2023/07/14 04:23:55;;;;;;;;;17.00;14.67;;;;;20.83;50.13;101352.88;5020540;28;45479;-49
2023/07/14 04:26:22;;;;;;;;;17.67;16.00;;;;;20.88;50.20;101352.50;5021065;28;67280;-48
2023/07/14 04:28:47;;;;;;;;;19.67;15.00;;;;;20.89;49.94;101357.78;5021262;28;45520;-46
2023/07/14 04:31:13;;;;;;;;;20.00;17.00;;;;;20.90;50.02;101351.38;5020899;28;45602;-46
2023/07/14 04:33:38;;;;;;;;;24.33;15.33;;;;;20.93;50.24;101344.84;5020371;28;46243;-47
2023/07/14 04:36:05;;;;;;;;;17.33;15.33;;;;;20.94;50.02;101346.56;5019678;28;68542;-48
2023/07/14 04:38:31;;;;;;;;;24.67;18.00;;;;;20.94;50.39;101344.72;5020544;28;45470;-45
2023/07/14 04:40:56;;;;;;;;;19.33;15.33;;;;;20.95;50.01;101338.34;5020513;28;45702;-47
2023/07/14 04:43:22;;;;;;;;;18.33;17.00;;;;;20.95;49.88;101332.94;5020229;28;45970;-47
2023/07/14 04:45:49;;;;;;;;;20.00;15.00;;;;;20.93;49.96;101334.88;5019478;28;69082;-49
2023/07/14 04:48:16;;;;;;;;;14.67;14.67;;;;;20.91;50.44;101325.19;5020168;28;45379;-45
2023/07/14 04:50:43;;;;;;;;;19.67;16.67;;;;;20.91;50.41;101338.72;5020366;28;45571;-45
2023/07/14 04:53:09;;;;;;;;;18.00;15.33;;;;;20.91;50.60;101336.00;5020208;28;45366;-45
2023/07/14 04:55:42;;;;;;;;;13.00;11.00;;;;;20.91;50.40;101334.19;5019134;28;73186;-44
2023/07/14 04:58:08;;;;;;;;;12.67;10.33;;;;;20.91;50.88;101319.78;5020575;28;45457;-45
2023/07/14 05:00:36;;;;;;;;;14.00;14.00;;;;;20.92;50.91;101302.59;5020348;28;45398;-46
2023/07/14 05:03:01;;;;;;;;;14.00;12.00;;;;;20.87;50.74;101275.97;5019679;28;45540;-45
2023/07/14 05:05:27;;;;;;;;;16.33;14.00;;;;;20.77;50.52;101275.03;5018829;28;46028;-46
2023/07/14 05:07:55;;;;;;;;;14.00;13.33;;;;;20.73;50.97;101276.25;5020139;28;45392;-46
2023/07/14 05:10:22;;;;;;;;;15.00;11.67;;;;;20.74;50.50;101276.16;5019493;28;45372;-46
2023/07/14 05:12:54;;;;;;;;;16.33;14.67;;;;;20.78;50.53;101272.19;5018880;28;45446;-46
2023/07/14 05:15:20;;;;;;;;;13.67;13.67;;;;;20.82;50.38;101276.34;5019933;28;45502;-46
2023/07/14 05:17:47;;;;;;;;;10.00;10.00;;;;;20.85;51.00;101267.13;5018662;28;45426;-46
2023/07/14 05:20:14;;;;;;;;;12.67;12.67;;;;;20.91;50.33;101257.59;5019900;28;45452;-44
2023/07/14 05:22:41;;;;;;;;;15.33;11.67;;;;;20.94;50.83;101239.28;5019629;28;46909;-44
2023/07/14 05:25:07;;;;;;;;;11.00;10.67;;;;;21.00;50.00;101232.47;5019750;28;45383;-44
2023/07/14 05:27:33;;;;;;;;;12.00;12.00;;;;;21.06;50.44;101229.22;5019877;28;45420;-45
2023/07/14 05:29:58;;;;;;;;;12.33;11.00;;;;;21.12;50.21;101238.69;5019772;28;45531;-46
2023/07/14 05:32:26;;;;;;;;;11.67;6.33;;;;;21.17;50.29;101249.91;5018612;28;75522;-48
2023/07/14 05:34:52;;;;;;;;;7.33;7.33;;;;;21.20;50.01;101246.97;5019642;28;45321;-46
2023/07/14 05:37:17;;;;;;;;;11.67;8.33;;;;;21.25;49.46;101246.53;5019954;28;45480;-46
2023/07/14 05:39:44;;;;;;;;;5.00;5.00;;;;;21.29;49.38;101235.31;5019792;28;45541;-46
2023/07/14 05:42:09;;;;;;;;;3.67;3.67;;;;;21.32;48.90;101253.97;5019610;28;46243;-46
2023/07/14 05:44:35;;;;;;;;;8.33;4.33;;;;;21.31;48.72;101268.50;5019561;28;45240;-44
2023/07/14 05:47:01;;;;;;;;;5.67;4.00;;;;;21.32;48.67;101261.25;5018549;28;45432;-44
2023/07/14 05:49:26;;;;;;;;;6.00;4.33;;;;;21.38;48.71;101249.00;5019190;28;45289;-45
2023/07/14 05:51:52;;;;;;;;;8.00;6.00;;;;;21.46;48.74;101251.91;5019687;28;45476;-46
2023/07/14 05:54:17;;;;;;;;;6.00;5.00;;;;;21.52;48.39;101245.94;5018604;28;64706;-43
2023/07/14 05:56:43;;;;;;;;;5.00;4.00;;;;;21.56;47.89;101227.59;5019706;28;45748;-43
2023/07/14 05:59:08;;;;;;;;;5.00;3.33;;;;;21.58;47.70;101221.06;5019592;28;45519;-44
2023/07/14 06:01:33;;;;;;;;;6.00;6.00;;;;;21.55;47.68;101239.41;5018707;28;69922;-46
2023/07/14 06:03:59;;;;;;;;;6.33;4.67;;;;;21.51;47.90;101232.53;5017687;28;45348;-45
2023/07/14 06:06:24;;;;;;;;;4.67;4.67;;;;;21.52;48.11;101231.56;5019390;28;45261;-49
2023/07/14 06:08:50;;;;;;;;;6.00;6.00;;;;;21.53;47.59;101239.53;5018268;28;45403;-45
2023/07/14 06:11:15;;;;;;;;;4.00;4.00;;;;;21.54;47.45;101243.97;5018256;28;70258;-45
2023/07/14 06:13:41;;;;;;;;;4.67;2.00;;;;;21.57;47.79;101229.31;5018616;28;64071;-45
2023/07/14 06:16:06;;;;;;;;;6.00;4.00;;;;;21.66;47.34;101225.78;5019476;28;45301;-45
2023/07/14 06:18:31;;;;;;;;;3.67;3.00;;;;;21.76;47.30;101239.34;5019035;28;45411;-44
2023/07/14 06:20:57;;;;;;;;;5.33;4.33;;;;;21.86;46.69;101242.06;5018343;28;67245;-47
2023/07/14 06:23:23;;;;;;;;;2.67;2.67;;;;;22.00;47.07;101238.09;5021979;28;45359;-49
2023/07/14 06:25:48;;;;;;;;;5.67;3.33;;;;;22.16;46.93;101240.25;5021459;28;45521;-47
2023/07/14 06:28:14;;;;;;;;;4.67;4.00;;;;;22.30;46.45;101242.53;5022450;28;45427;-45
2023/07/14 06:30:39;;;;;;;;;7.00;4.00;;;;;22.43;46.11;101242.25;5021727;28;66785;-44
2023/07/14 06:33:05;;;;;;;;;6.33;5.00;;;;;22.57;45.58;101235.56;5022011;28;45356;-45
2023/07/14 06:35:31;;;;;;;;;3.00;2.00;;;;;22.69;45.44;101226.25;5022723;28;45394;-45
2023/07/14 06:37:57;;;;;;;;;5.33;5.33;;;;;22.91;45.39;101211.50;5021608;28;64999;-47
2023/07/14 06:40:25;;;;;;;;;4.00;4.00;;;;;23.21;45.01;101193.28;5022239;28;47029;-49
2023/07/14 06:42:51;;;;;;;;;6.00;5.33;;;;;23.42;44.53;101193.00;5022083;28;45475;-47
2023/07/14 06:45:16;;;;;;;;;7.00;5.33;;;;;23.48;43.70;101197.00;5021881;28;59735;-45
2023/07/14 06:47:42;;;;;;;;;5.00;4.00;;;;;23.49;43.89;101198.69;5022196;28;45560;-47
2023/07/14 06:50:08;;;;;;;;;10.00;5.33;;;;;23.52;43.42;101198.41;5022143;28;45406;-45
2023/07/14 06:52:36;;;;;;;;;3.33;3.33;;;;;23.50;43.21;101194.97;5022165;28;45309;-46
2023/07/14 06:55:02;;;;;;;;;7.00;5.00;;;;;23.46;43.21;101191.69;5022078;28;45434;-45
2023/07/14 06:57:27;;;;;;;;;4.00;4.00;;;;;23.43;43.21;101197.44;5022221;28;45332;-46
2023/07/14 06:59:53;;;;;;;;;4.33;4.33;;;;;23.36;42.47;101206.34;5020895;28;72633;-49
2023/07/14 07:02:18;;;;;;;;;7.00;4.00;;;;;23.19;42.49;101200.69;5021288;28;61824;-48
2023/07/14 07:04:43;;;;;;;;;4.33;4.33;;;;;23.07;43.03;101200.00;5020656;28;45499;-46
2023/07/14 07:07:09;;;;;;;;;4.33;4.00;;;;;23.13;42.82;101187.72;5021980;28;45434;-46
2023/07/14 07:09:35;;;;;;;;;3.33;3.33;;;;;23.31;43.11;101184.22;5021897;28;46270;-47
2023/07/14 07:12:01;;;;;;;;;4.00;4.00;;;;;23.55;42.56;101179.09;5021974;28;45491;-46
2023/07/14 07:14:27;;;;;;;;;3.67;3.67;;;;;23.92;42.42;101166.41;5022059;28;45329;-45
2023/07/14 07:16:52;;;;;;;;;4.33;4.33;;;;;24.53;41.43;101166.56;5022027;28;45356;-45
2023/07/14 07:19:18;;;;;;;;;2.00;2.00;;;;;24.79;40.62;101168.47;5021304;28;46253;-45
2023/07/14 07:21:43;;;;;;;;;4.67;4.67;;;;;25.02;40.77;101157.88;5021731;28;45463;-45
2023/07/14 07:24:09;;;;;;;;;5.00;5.00;;;;;25.24;40.42;101156.44;5020714;28;68706;-46
2023/07/14 07:26:35;;;;;;;;;6.00;6.00;;;;;25.31;39.41;101170.22;5021677;28;45333;-45
2023/07/14 07:29:00;;;;;;;;;7.00;5.00;;;;;25.40;39.15;101159.22;5021586;28;45364;-46
2023/07/14 07:31:26;;;;;;;;;6.67;5.00;;;;;26.36;38.82;101158.81;5020401;28;45662;-47
2023/07/14 07:33:51;;;;;;;;;7.00;5.00;;;;;26.91;36.51;101160.78;5020468;28;55750;-47
2023/07/14 07:36:16;;;;;;;;;6.67;6.00;;;;;26.66;37.02;101159.97;5021602;28;45359;-47
2023/07/14 07:38:44;;;;;;;;;2.33;2.33;;;;;26.23;36.88;101162.94;5020624;28;68541;-46
2023/07/14 07:41:10;;;;;;;;;7.00;4.00;;;;;25.89;37.13;101171.22;5020896;28;45510;-46
2023/07/14 07:43:36;;;;;;;;;5.67;4.33;;;;;25.62;37.40;101158.75;5021414;28;45532;-46
2023/07/14 07:46:01;;;;;;;;;5.67;3.67;;;;;25.70;37.64;101154.19;5021231;28;47851;-47
2023/07/14 07:48:26;;;;;;;;;5.33;5.00;;;;;25.97;38.13;101151.31;5019995;28;72390;-45
2023/07/14 07:50:51;;;;;;;;;4.67;4.33;;;;;26.44;37.32;101142.47;5021250;28;45419;-46
2023/07/14 07:53:17;;;;;;;;;5.00;5.00;;;;;26.99;37.11;101135.34;5020877;28;50510;-49
2023/07/14 07:55:51;;;;;;;;;4.67;4.67;;;;;27.63;36.31;101136.25;5021180;28;45401;-45
2023/07/14 07:58:16;;;;;;;;;5.67;4.33;;;;;27.96;33.45;101125.88;5021177;28;46457;-48
2023/07/14 08:00:43;;;;;;;;;6.00;5.33;;;;;27.77;34.36;101119.06;5018725;28;72938;-49
2023/07/14 08:03:08;;;;;;;;;4.00;4.00;;;;;27.35;34.30;101132.09;5020665;28;45506;-45
2023/07/14 08:05:35;;;;;;;;;4.33;4.00;;;;;26.74;34.12;101127.25;5019877;28;69066;-45
2023/07/14 08:08:00;;;;;;;;;5.67;4.00;;;;;26.25;35.06;101120.00;5020861;28;46972;-47
2023/07/14 08:10:25;;;;;;;;;5.00;4.00;;;;;25.98;35.32;101120.31;5020712;28;45372;-45
2023/07/14 08:12:52;;;;;;;;;4.75;4.00;;;;;25.84;36.33;101119.13;5020931;28;45285;-46
2023/07/14 08:15:18;;;;;;;;;4.67;4.67;;;;;25.87;36.13;101116.06;5020916;28;45297;-45
2023/07/14 08:17:54;;;;;;;;;2.50;2.50;;;;;26.04;35.97;101116.97;5020570;28;46127;-46
2023/07/14 08:20:19;;;;;;;;;4.33;4.00;;;;;26.33;34.82;101118.28;5020760;28;45350;-46
2023/07/14 08:22:44;;;;;;;;;5.67;4.33;;;;;26.35;35.51;101122.53;5020531;28;50341;-49
2023/07/14 08:25:10;;;;;;;;;5.00;5.00;;;;;26.63;34.13;101121.28;5019895;28;68941;-46
2023/07/14 08:27:35;;;;;;;;;5.67;4.00;;;;;26.74;33.99;101112.78;5020527;28;46108;-45
2023/07/14 08:30:01;;;;;;;;;5.67;4.33;;;;;26.60;34.90;101121.66;5019593;28;73388;-45
2023/07/14 08:32:26;;;;;;;;;5.33;4.00;;;;;26.54;34.27;101118.59;5019566;28;66675;-45
2023/07/14 08:34:51;;;;;;;;;4.00;4.00;;;;;26.33;34.98;101118.28;5018968;28;50688;-46
2023/07/14 08:37:17;;;;;;;;;6.67;4.00;;;;;26.17;34.44;101106.38;5018529;28;61422;-45
2023/07/14 08:39:43;;;;;;;;;3.00;3.00;;;;;26.07;35.38;101098.41;5019944;28;56951;-49
2023/07/14 08:42:23;;;;;;;;;4.67;4.00;;;;;26.23;34.84;101099.38;5019281;28;45578;-46
2023/07/14 08:45:14;;;;;;;;;5.00;5.00;;;;;26.29;34.74;101093.25;5018937;28;45666;-47
2023/07/14 08:47:52;;;;;;;;;4.00;4.00;;;;;26.34;35.32;101079.09;5020744;28;45327;-47
2023/07/14 08:50:21;;;;;;;;;4.00;4.00;;;;;26.79;34.88;101077.63;5020318;28;45352;-45
2023/07/14 08:52:48;;;;;;;;;6.00;4.00;;;;;28.70;33.48;101062.28;5020400;28;45423;-47
2023/07/14 08:55:28;;;;;;;;;5.00;5.00;;;;;30.82;31.13;101064.59;5018868;28;45350;-46
2023/07/14 08:58:04;;;;;;;;;5.00;5.00;;;;;31.74;29.21;101058.78;5019356;28;63716;-49
2023/07/14 09:00:36;;;;;;;;;7.00;7.00;;;;;33.07;26.95;101054.03;5019006;28;45600;-47
2023/07/14 09:03:15;;;;;;;;;9.33;8.00;;;;;35.05;25.67;101044.38;5019747;28;45721;-48
2023/07/14 09:05:53;;;;;;;;;5.00;4.25;;;;;35.14;24.26;101047.63;5018512;28;45533;-46
2023/07/14 09:08:24;;;;;;;;;5.00;5.00;;;;;36.17;25.18;101039.19;5019922;28;46294;-46
2023/07/14 09:11:02;;;;;;;;;5.75;3.00;;;;;36.68;24.09;101043.06;5019845;28;45457;-49
2023/07/14 09:13:33;;;;;;;;;4.00;4.00;;;;;36.36;22.27;101031.59;5020132;28;45364;-46
2023/07/14 09:15:59;;;;;;;;;1.50;1.50;;;;;36.38;22.31;101034.97;5019954;28;45662;-47
2023/07/14 09:18:48;;;;;;;;;4.25;2.00;;;;;35.58;23.13;101027.00;5018860;28;65036;-45
2023/07/14 09:21:22;;;;;;;;;3.00;3.00;;;;;36.56;20.44;101037.56;5019889;28;45377;-50
2023/07/14 09:24:07;;;;;;;;;3.00;3.00;;;;;38.27;20.77;101027.56;5018702;28;45332;-48
2023/07/14 09:26:54;;;;;;;;;4.00;4.00;;;;;39.94;20.59;101015.91;5019688;28;45387;-48
2023/07/14 09:29:36;;;;;;;;;3.25;3.00;;;;;41.67;17.85;101015.88;5018319;28;47137;-50
2023/07/14 09:32:12;;;;;;;;;2.50;2.50;;;;;41.65;16.56;101006.94;5018394;28;45732;-48
2023/07/14 09:34:40;;;;;;;;;3.50;3.50;;;;;41.63;17.05;100998.03;5018590;28;45398;-49
2023/07/14 09:37:18;;;;;;;;;6.75;5.75;;;;;41.71;17.41;101010.56;5019577;28;45514;-48
2023/07/14 09:39:46;;;;;;;;;3.25;3.00;;;;;41.98;17.03;101003.84;5019635;28;46115;-48
2023/07/14 09:42:38;;;;;;;;;5.00;5.00;;;;;42.44;16.59;100995.31;4998410;28;45369;-45
2023/07/14 09:45:17;;;;;;;;;6.00;6.00;;;;;42.96;16.56;100992.22;5015935;28;45396;-46
2023/07/14 09:47:44;;;;;;;;;6.50;5.00;;;;;43.76;16.69;100985.38;5019430;28;45277;-47
2023/07/14 09:50:15;;;;;;;;;6.00;5.00;;;;;44.55;16.51;100984.19;5019385;28;45308;-47
2023/07/14 09:52:57;;;;;;;;;0.00;0.00;;;;;44.60;14.42;100972.06;5019521;28;45468;-48
2023/07/14 09:55:24;;;;;;;;;3.75;2.00;;;;;43.87;14.75;100969.28;5018567;28;45336;-50
2023/07/14 09:57:52;;;;;;;;;3.25;3.25;;;;;42.42;14.84;100975.19;5023132;28;45415;-47
2023/07/14 10:00:24;;;;;;;;;3.00;3.00;;;;;41.26;15.27;100965.66;5023225;28;46276;-47
2023/07/14 10:02:57;;;;;;;;;5.50;4.00;;;;;41.74;16.52;100950.56;5022525;28;45336;-49
2023/07/14 10:05:22;;;;;;;;;4.00;4.00;;;;;42.53;15.53;100952.78;5023103;28;45358;-46
2023/07/14 10:07:47;;;;;;;;;3.25;3.00;;;;;42.29;14.47;100964.66;5021547;28;45437;-48
2023/07/14 10:10:14;;;;;;;;;3.50;3.00;;;;;41.94;15.49;100942.16;5017288;28;71542;-47
2023/07/14 10:12:49;;;;;;;;;3.00;3.00;;;;;41.86;15.90;100942.72;5021347;28;45418;-47
2023/07/14 10:15:34;;;;;;;;;4.75;3.25;;;;;42.46;15.65;100941.94;5023077;28;45575;-46
2023/07/14 10:18:06;;;;;;;;;0.50;0.25;;;;;42.46;15.28;100939.13;5021362;28;45442;-47
2023/07/14 10:20:33;;;;;;;;;4.00;3.00;;;;;42.08;14.45;100935.94;5021095;28;46102;-47
2023/07/14 10:22:59;;;;;;;;;3.75;3.00;;;;;41.40;15.63;100920.50;5022506;28;45401;-48
2023/07/14 10:25:27;;;;;;;;;6.50;6.00;;;;;41.38;15.11;100922.69;5022439;28;45553;-49
2023/07/14 10:28:07;;;;;;;;;8.50;8.50;;;;;40.89;15.65;100922.13;5021227;28;45407;-46
2023/07/14 10:30:37;;;;;;;;;4.00;2.50;;;;;40.68;14.68;100915.72;5021085;28;46222;-47
2023/07/14 10:33:09;;;;;;;;;6.75;6.75;;;;;40.44;15.90;100907.00;5021012;28;45301;-48
2023/07/14 10:35:37;;;;;;;;;4.00;3.25;;;;;39.84;16.56;100915.66;5021978;28;45401;-48
2023/07/14 10:38:24;;;;;;;;;2.75;2.75;;;;;38.58;16.90;100908.53;5023696;28;45521;-49
2023/07/14 10:40:59;;;;;;;;;3.00;3.00;;;;;37.51;17.28;100920.72;5022215;28;46988;-49
2023/07/14 10:43:29;;;;;;;;;2.75;2.75;;;;;36.73;18.16;100907.44;5022384;28;45500;-49
2023/07/14 10:45:58;;;;;;;;;3.00;1.50;;;;;36.12;19.02;100892.41;5021074;28;45391;-49
2023/07/14 10:48:32;;;;;;;;;6.00;6.00;;;;;35.73;19.53;100887.41;5020646;28;45351;-49
2023/07/14 10:51:02;;;;;;;;;10.00;9.00;;;;;35.68;19.67;100896.41;5020754;28;46264;-48
2023/07/14 10:53:55;;;;;;;;;4.25;3.75;;;;;34.77;19.75;100880.06;5020681;28;45353;-49
2023/07/14 10:56:32;;;;;;;;;2.75;2.75;;;;;34.08;20.93;100870.19;5021009;28;45360;-48
2023/07/14 10:59:02;;;;;;;;;4.00;4.00;;;;;33.53;21.04;100876.47;5004280;28;45491;-50
2023/07/14 11:01:35;;;;;;;;;1.00;1.00;;;;;33.30;21.91;100855.13;5020606;28;45451;-48
2023/07/14 11:04:15;;;;;;;;;5.00;3.50;;;;;33.50;21.73;100848.56;5020325;28;45442;-47
2023/07/14 11:06:44;;;;;;;;;3.00;3.00;;;;;33.91;22.06;100836.00;5022142;28;45385;-47
2023/07/14 11:09:11;;;;;;;;;3.75;3.25;;;;;34.02;21.60;100840.75;5020069;28;45302;-49
2023/07/14 11:11:56;;;;;;;;;3.25;2.25;;;;;34.00;21.19;100844.81;5021686;28;45531;-47
2023/07/14 11:14:40;;;;;;;;;3.00;2.50;;;;;33.94;21.25;100832.81;5021951;28;45425;-47
2023/07/14 11:17:16;;;;;;;;;4.00;4.00;;;;;34.24;21.36;100834.75;5022421;28;45378;-47
2023/07/14 11:20:08;;;;;;;;;1.50;1.50;;;;;34.27;21.03;100820.47;5022083;28;45506;-49
2023/07/14 11:22:37;;;;;;;;;2.75;2.75;;;;;34.11;21.24;100811.78;5021563;28;46039;-48
2023/07/14 11:25:26;;;;;;;;;3.00;2.50;;;;;33.51;21.69;100822.69;5021592;28;45484;-48